• Join FlightAware (Why Join?)
  • Login
  • US Flag 
05:15PM EDT


 

Airport Tracker/Info


-or-


 

Live Flight TrackerFlight Track Log ✈ FSR411 ✈ 10-Feb-2014 ✈ KCMI - KLEX

Flight Track Log - Related Links

Times and Time Zones

All times are in EST time to prevent confusion due to time zone crossing. See the FSR411 flight status page for this flight to view local times or setup timezone preferences in your user account.

Time Position Orientation Groundspeed Altitude Reporting Facility
EST Latitude Longitude Course Direction KTS MPH feet Rate Location/Type
11:20AM 40.0508 -88.2033 123° Southeast 245 282 7,500  Level Indianapolis Center
11:21AM 40.0094 -88.1419 131° Southeast 273 314 9,600 1,440 Climbing Chicago Center
11:22AM 39.9553 -88.0436 126° Southeast 336 387 10,200 2,340 Climbing Chicago Center
11:23AM 39.8636 -87.8889 128° Southeast 380 437 15,000 3,600 Climbing Indianapolis Center
11:24AM 39.7936 -87.7653 126° Southeast 415 478 18,400 2,760 Climbing Indianapolis Center
11:25AM 39.7161 -87.6572 123° Southeast  Level Estimated
11:25AM 39.7169 -87.6350 127° Southeast 450 518 20,700  Level Indianapolis Center
11:26AM 39.6372 -87.4986 127° Southeast 473 544 21,000 120 Climbing Indianapolis Center
11:27AM 39.5561 -87.3633 128° Southeast 477 549 21,000  Level Indianapolis Center
11:28AM 39.4744 -87.2278 128° Southeast 480 552 21,000  Level Indianapolis Center
11:29AM 39.3597 -87.0906 137° Southeast 476 548 21,000  Level Indianapolis Center
11:30AM 39.2667 -86.9750 136° Southeast 471 542 21,000  Level Indianapolis Center
11:31AM 39.1722 -86.8597 137° Southeast 471 542 21,000  Level Indianapolis Center
11:32AM 39.0728 -86.7364 136° Southeast 473 544 21,000  Level Indianapolis Center
11:34AM 38.8708 -86.4908 137° Southeast 471 542 21,000  Level Indianapolis Center
11:36AM 38.7808 -86.3890 139° Southeast  Level FlightAware Approximate
11:36AM 38.6900 -86.2722 139° Southeast 466 536 21,000  Level Indianapolis Center
11:37AM 38.6275 -86.1222 118° Southeast 475 547 21,000 -720 Level Indianapolis Center
11:38AM 38.5719 -85.9683 115° Southeast 475 547 19,600 -1,500 Descending Indianapolis Center
11:39AM 38.5119 -85.8167 117° Southeast 474 545 18,000 -1,380 Descending Indianapolis Center
11:40AM 38.4561 -85.6700 116° Southeast 465 535 16,800 -1,560 Descending Indianapolis Center
11:42AM 38.3917 -85.5031 116° Southeast 445 512 14,900 -1,740 Descending Indianapolis Center
11:43AM 38.3386 -85.3703 117° Southeast 425 489 13,300 -1,560 Descending Indianapolis Center
11:44AM 38.2897 -85.2439 116° Southeast 403 464 11,800 -1,140 Descending Indianapolis Center
11:45AM 38.2469 -85.1339 116° Southeast 367 422 11,000 -1,080 Descending Indianapolis Center
11:48AM 38.1136 -84.8414 115° Southeast 301 346 7,600 -1,440 Descending Indianapolis Center
11:49AM 38.0439 -84.7628 138° Southeast 290 334 5,300 -2,100 Descending Indianapolis Center
11:50AM 37.9917 -84.7025 138° Southeast 267 307 3,400 -1,320 Descending Indianapolis Center
11:51AM 37.9903 -84.6564 92° East 194 223 2,700 -720 Descending Indianapolis Center
11:53AM 38.0333 -84.6000 113° Southeast  Level FlightAware Approximate
12:00PM 38.0368 -84.6086 113° Southeast  Level Estimated
12:01PM 38.0368 -84.6086 113° Southeast  Level Estimated